sensor_id;sensor_type;location;lat;lon;timestamp;P1;durP1;ratioP1;P2;durP2;ratioP2
5054;SDS011;13829;48.990;8.346;2024-03-08T00:02:14;22.87;;;16.33;;
5054;SDS011;13829;48.990;8.346;2024-03-08T00:04:41;22.67;;;16.57;;
5054;SDS011;13829;48.990;8.346;2024-03-08T00:07:09;24.70;;;16.77;;
5054;SDS011;13829;48.990;8.346;2024-03-08T00:09:38;23.53;;;15.63;;
5054;SDS011;13829;48.990;8.346;2024-03-08T00:12:05;25.33;;;17.77;;
5054;SDS011;13829;48.990;8.346;2024-03-08T00:14:32;21.90;;;16.53;;
5054;SDS011;13829;48.990;8.346;2024-03-08T00:17:00;20.90;;;16.53;;
5054;SDS011;13829;48.990;8.346;2024-03-08T00:19:29;24.20;;;16.93;;
5054;SDS011;13829;48.990;8.346;2024-03-08T00:21:56;22.90;;;17.00;;
5054;SDS011;13829;48.990;8.346;2024-03-08T00:24:23;22.13;;;16.53;;
5054;SDS011;13829;48.990;8.346;2024-03-08T00:26:50;25.10;;;16.97;;
5054;SDS011;13829;48.990;8.346;2024-03-08T00:29:18;23.10;;;16.80;;
5054;SDS011;13829;48.990;8.346;2024-03-08T00:31:46;26.90;;;17.30;;
5054;SDS011;13829;48.990;8.346;2024-03-08T00:34:13;25.10;;;17.00;;
5054;SDS011;13829;48.990;8.346;2024-03-08T00:36:42;27.77;;;18.40;;
5054;SDS011;13829;48.990;8.346;2024-03-08T00:39:09;24.40;;;18.80;;
5054;SDS011;13829;48.990;8.346;2024-03-08T00:41:37;26.13;;;17.30;;
5054;SDS011;13829;48.990;8.346;2024-03-08T00:44:04;25.70;;;17.47;;
5054;SDS011;13829;48.990;8.346;2024-03-08T00:46:31;24.37;;;18.33;;
5054;SDS011;13829;48.990;8.346;2024-03-08T00:48:59;23.13;;;17.07;;
5054;SDS011;13829;48.990;8.346;2024-03-08T00:51:26;23.53;;;17.67;;
5054;SDS011;13829;48.990;8.346;2024-03-08T00:53:54;27.90;;;18.67;;
5054;SDS011;13829;48.990;8.346;2024-03-08T00:56:21;24.53;;;17.83;;
5054;SDS011;13829;48.990;8.346;2024-03-08T00:58:49;25.80;;;17.47;;
5054;SDS011;13829;48.990;8.346;2024-03-08T01:01:18;27.13;;;18.17;;
5054;SDS011;13829;48.990;8.346;2024-03-08T01:03:45;24.20;;;17.57;;
5054;SDS011;13829;48.990;8.346;2024-03-08T01:06:13;28.63;;;17.87;;
5054;SDS011;13829;48.990;8.346;2024-03-08T01:08:40;26.00;;;18.70;;
5054;SDS011;13829;48.990;8.346;2024-03-08T01:11:09;25.97;;;18.30;;
5054;SDS011;13829;48.990;8.346;2024-03-08T01:13:36;26.57;;;17.57;;
5054;SDS011;13829;48.990;8.346;2024-03-08T01:16:03;29.33;;;19.40;;
5054;SDS011;13829;48.990;8.346;2024-03-08T01:18:31;23.27;;;17.73;;
5054;SDS011;13829;48.990;8.346;2024-03-08T01:20:58;28.80;;;18.50;;
5054;SDS011;13829;48.990;8.346;2024-03-08T01:23:25;26.73;;;18.33;;
5054;SDS011;13829;48.990;8.346;2024-03-08T01:25:52;24.33;;;17.53;;
5054;SDS011;13829;48.990;8.346;2024-03-08T01:28:23;26.63;;;18.47;;
5054;SDS011;13829;48.990;8.346;2024-03-08T01:30:50;28.03;;;20.23;;
5054;SDS011;13829;48.990;8.346;2024-03-08T01:33:20;25.43;;;18.43;;
5054;SDS011;13829;48.990;8.346;2024-03-08T01:35:48;28.27;;;18.90;;
5054;SDS011;13829;48.990;8.346;2024-03-08T01:38:15;31.53;;;20.20;;
5054;SDS011;13829;48.990;8.346;2024-03-08T01:40:42;27.83;;;19.13;;
5054;SDS011;13829;48.990;8.346;2024-03-08T01:43:19;29.00;;;17.90;;
5054;SDS011;13829;48.990;8.346;2024-03-08T01:45:49;28.50;;;19.27;;
5054;SDS011;13829;48.990;8.346;2024-03-08T01:48:16;24.97;;;17.80;;
5054;SDS011;13829;48.990;8.346;2024-03-08T01:50:44;25.40;;;18.57;;
5054;SDS011;13829;48.990;8.346;2024-03-08T01:53:12;27.00;;;18.97;;
5054;SDS011;13829;48.990;8.346;2024-03-08T01:55:41;27.67;;;17.77;;
5054;SDS011;13829;48.990;8.346;2024-03-08T01:58:11;28.33;;;18.60;;
5054;SDS011;13829;48.990;8.346;2024-03-08T02:00:40;24.97;;;17.53;;
5054;SDS011;13829;48.990;8.346;2024-03-08T02:03:12;25.00;;;18.10;;
5054;SDS011;13829;48.990;8.346;2024-03-08T02:05:40;25.47;;;17.90;;
5054;SDS011;13829;48.990;8.346;2024-03-08T02:08:08;26.83;;;18.67;;
5054;SDS011;13829;48.990;8.346;2024-03-08T02:10:37;29.00;;;19.10;;
5054;SDS011;13829;48.990;8.346;2024-03-08T02:13:04;26.23;;;17.87;;
5054;SDS011;13829;48.990;8.346;2024-03-08T02:18:17;26.90;;;18.03;;
5054;SDS011;13829;48.990;8.346;2024-03-08T02:20:46;27.57;;;18.30;;
5054;SDS011;13829;48.990;8.346;2024-03-08T02:23:13;26.80;;;18.30;;
5054;SDS011;13829;48.990;8.346;2024-03-08T02:25:40;27.03;;;18.90;;
5054;SDS011;13829;48.990;8.346;2024-03-08T02:28:08;26.70;;;17.70;;
5054;SDS011;13829;48.990;8.346;2024-03-08T02:30:37;24.43;;;18.23;;
5054;SDS011;13829;48.990;8.346;2024-03-08T02:33:04;26.97;;;18.37;;
5054;SDS011;13829;48.990;8.346;2024-03-08T02:35:31;27.87;;;18.00;;
5054;SDS011;13829;48.990;8.346;2024-03-08T02:38:00;25.47;;;17.70;;
5054;SDS011;13829;48.990;8.346;2024-03-08T02:40:28;28.97;;;18.13;;
5054;SDS011;13829;48.990;8.346;2024-03-08T02:42:55;26.60;;;17.80;;
5054;SDS011;13829;48.990;8.346;2024-03-08T02:45:23;26.30;;;18.13;;
5054;SDS011;13829;48.990;8.346;2024-03-08T02:47:50;24.10;;;17.97;;
5054;SDS011;13829;48.990;8.346;2024-03-08T02:50:17;25.53;;;17.47;;
5054;SDS011;13829;48.990;8.346;2024-03-08T02:52:44;26.03;;;17.47;;
5054;SDS011;13829;48.990;8.346;2024-03-08T02:55:14;25.83;;;17.20;;
5054;SDS011;13829;48.990;8.346;2024-03-08T02:57:41;28.10;;;18.50;;
5054;SDS011;13829;48.990;8.346;2024-03-08T03:00:09;27.33;;;18.77;;
5054;SDS011;13829;48.990;8.346;2024-03-08T03:02:37;24.10;;;17.20;;
5054;SDS011;13829;48.990;8.346;2024-03-08T03:05:05;24.40;;;17.40;;
5054;SDS011;13829;48.990;8.346;2024-03-08T03:07:34;26.03;;;17.77;;
5054;SDS011;13829;48.990;8.346;2024-03-08T03:10:02;26.83;;;18.20;;
5054;SDS011;13829;48.990;8.346;2024-03-08T03:12:33;28.13;;;17.47;;
5054;SDS011;13829;48.990;8.346;2024-03-08T03:15:00;26.40;;;17.97;;
5054;SDS011;13829;48.990;8.346;2024-03-08T03:17:27;27.47;;;17.90;;
5054;SDS011;13829;48.990;8.346;2024-03-08T03:19:54;28.10;;;17.63;;
5054;SDS011;13829;48.990;8.346;2024-03-08T03:22:21;29.57;;;18.50;;
5054;SDS011;13829;48.990;8.346;2024-03-08T03:24:48;23.57;;;16.60;;
5054;SDS011;13829;48.990;8.346;2024-03-08T03:27:16;24.73;;;17.00;;
5054;SDS011;13829;48.990;8.346;2024-03-08T03:29:46;25.40;;;17.87;;
5054;SDS011;13829;48.990;8.346;2024-03-08T03:32:14;24.97;;;17.30;;
5054;SDS011;13829;48.990;8.346;2024-03-08T03:34:44;25.77;;;17.43;;
5054;SDS011;13829;48.990;8.346;2024-03-08T03:37:11;26.57;;;17.60;;
5054;SDS011;13829;48.990;8.346;2024-03-08T03:39:38;26.47;;;16.80;;
5054;SDS011;13829;48.990;8.346;2024-03-08T03:42:13;24.27;;;17.20;;
5054;SDS011;13829;48.990;8.346;2024-03-08T03:44:41;22.43;;;15.67;;
5054;SDS011;13829;48.990;8.346;2024-03-08T03:47:11;27.03;;;17.50;;
5054;SDS011;13829;48.990;8.346;2024-03-08T03:49:39;25.30;;;17.43;;
5054;SDS011;13829;48.990;8.346;2024-03-08T03:52:06;28.17;;;17.40;;
5054;SDS011;13829;48.990;8.346;2024-03-08T03:54:33;27.30;;;17.87;;
5054;SDS011;13829;48.990;8.346;2024-03-08T03:57:00;24.43;;;16.47;;
5054;SDS011;13829;48.990;8.346;2024-03-08T03:59:27;26.93;;;17.37;;
5054;SDS011;13829;48.990;8.346;2024-03-08T04:01:55;24.50;;;17.57;;
5054;SDS011;13829;48.990;8.346;2024-03-08T04:04:23;24.17;;;17.50;;
5054;SDS011;13829;48.990;8.346;2024-03-08T04:06:50;27.63;;;18.23;;
5054;SDS011;13829;48.990;8.346;2024-03-08T04:09:17;25.13;;;16.57;;
5054;SDS011;13829;48.990;8.346;2024-03-08T04:11:44;24.77;;;17.53;;
5054;SDS011;13829;48.990;8.346;2024-03-08T04:14:11;26.87;;;16.37;;
5054;SDS011;13829;48.990;8.346;2024-03-08T04:16:38;23.43;;;16.47;;
5054;SDS011;13829;48.990;8.346;2024-03-08T04:19:05;24.53;;;16.90;;
5054;SDS011;13829;48.990;8.346;2024-03-08T04:21:34;23.50;;;16.10;;
5054;SDS011;13829;48.990;8.346;2024-03-08T04:24:01;25.70;;;16.37;;
5054;SDS011;13829;48.990;8.346;2024-03-08T04:26:28;24.30;;;17.33;;
5054;SDS011;13829;48.990;8.346;2024-03-08T04:28:55;26.27;;;17.97;;
5054;SDS011;13829;48.990;8.346;2024-03-08T04:31:22;25.33;;;17.53;;
5054;SDS011;13829;48.990;8.346;2024-03-08T04:33:51;24.00;;;16.90;;
5054;SDS011;13829;48.990;8.346;2024-03-08T04:36:18;28.27;;;17.50;;
5054;SDS011;13829;48.990;8.346;2024-03-08T04:38:46;24.47;;;16.00;;
5054;SDS011;13829;48.990;8.346;2024-03-08T04:41:13;27.03;;;18.27;;
5054;SDS011;13829;48.990;8.346;2024-03-08T04:43:40;27.83;;;16.93;;
5054;SDS011;13829;48.990;8.346;2024-03-08T04:46:07;29.90;;;19.23;;
5054;SDS011;13829;48.990;8.346;2024-03-08T04:48:34;25.03;;;16.23;;
5054;SDS011;13829;48.990;8.346;2024-03-08T04:51:02;29.30;;;17.60;;
5054;SDS011;13829;48.990;8.346;2024-03-08T04:53:30;25.13;;;16.23;;
5054;SDS011;13829;48.990;8.346;2024-03-08T04:56:00;24.03;;;16.50;;
5054;SDS011;13829;48.990;8.346;2024-03-08T04:58:31;23.00;;;15.90;;
5054;SDS011;13829;48.990;8.346;2024-03-08T05:00:59;23.17;;;15.63;;
5054;SDS011;13829;48.990;8.346;2024-03-08T05:03:26;22.27;;;15.83;;
5054;SDS011;13829;48.990;8.346;2024-03-08T05:05:53;22.33;;;15.93;;
5054;SDS011;13829;48.990;8.346;2024-03-08T05:08:21;26.10;;;16.43;;
5054;SDS011;13829;48.990;8.346;2024-03-08T05:10:48;26.93;;;15.87;;
5054;SDS011;13829;48.990;8.346;2024-03-08T05:13:16;24.93;;;15.63;;
5054;SDS011;13829;48.990;8.346;2024-03-08T05:15:43;24.23;;;16.43;;
5054;SDS011;13829;48.990;8.346;2024-03-08T05:18:14;25.13;;;17.07;;
5054;SDS011;13829;48.990;8.346;2024-03-08T05:20:41;25.10;;;15.70;;
5054;SDS011;13829;48.990;8.346;2024-03-08T05:23:08;21.80;;;16.00;;
5054;SDS011;13829;48.990;8.346;2024-03-08T05:25:35;21.63;;;13.40;;
5054;SDS011;13829;48.990;8.346;2024-03-08T05:28:02;23.43;;;15.50;;
5054;SDS011;13829;48.990;8.346;2024-03-08T05:30:31;24.13;;;15.60;;
5054;SDS011;13829;48.990;8.346;2024-03-08T05:32:58;26.23;;;15.53;;
5054;SDS011;13829;48.990;8.346;2024-03-08T05:35:25;23.40;;;16.07;;
5054;SDS011;13829;48.990;8.346;2024-03-08T05:37:52;25.80;;;16.73;;
5054;SDS011;13829;48.990;8.346;2024-03-08T05:40:19;24.27;;;15.83;;
5054;SDS011;13829;48.990;8.346;2024-03-08T05:42:46;23.30;;;15.73;;
5054;SDS011;13829;48.990;8.346;2024-03-08T05:45:13;26.83;;;17.33;;
5054;SDS011;13829;48.990;8.346;2024-03-08T05:47:41;25.17;;;16.77;;
5054;SDS011;13829;48.990;8.346;2024-03-08T05:50:08;22.40;;;15.40;;
5054;SDS011;13829;48.990;8.346;2024-03-08T05:52:36;24.03;;;16.03;;
5054;SDS011;13829;48.990;8.346;2024-03-08T05:55:04;26.97;;;15.97;;
5054;SDS011;13829;48.990;8.346;2024-03-08T05:57:32;23.07;;;15.23;;
5054;SDS011;13829;48.990;8.346;2024-03-08T05:59:59;21.30;;;14.97;;
5054;SDS011;13829;48.990;8.346;2024-03-08T06:02:26;24.13;;;15.20;;
5054;SDS011;13829;48.990;8.346;2024-03-08T06:04:54;23.13;;;15.57;;
5054;SDS011;13829;48.990;8.346;2024-03-08T06:07:21;23.67;;;16.37;;
5054;SDS011;13829;48.990;8.346;2024-03-08T06:09:48;22.40;;;14.60;;
5054;SDS011;13829;48.990;8.346;2024-03-08T06:12:15;23.33;;;15.40;;
5054;SDS011;13829;48.990;8.346;2024-03-08T06:14:44;22.07;;;14.90;;
5054;SDS011;13829;48.990;8.346;2024-03-08T06:17:11;23.37;;;15.43;;
5054;SDS011;13829;48.990;8.346;2024-03-08T06:19:38;23.37;;;15.83;;
5054;SDS011;13829;48.990;8.346;2024-03-08T06:22:06;23.30;;;15.73;;
5054;SDS011;13829;48.990;8.346;2024-03-08T06:24:34;24.40;;;15.43;;
5054;SDS011;13829;48.990;8.346;2024-03-08T06:27:03;21.30;;;15.70;;
5054;SDS011;13829;48.990;8.346;2024-03-08T06:29:30;21.07;;;15.00;;
5054;SDS011;13829;48.990;8.346;2024-03-08T06:31:57;24.50;;;16.53;;
5054;SDS011;13829;48.990;8.346;2024-03-08T06:34:25;24.13;;;16.07;;
5054;SDS011;13829;48.990;8.346;2024-03-08T06:36:52;27.10;;;15.97;;
5054;SDS011;13829;48.990;8.346;2024-03-08T06:39:27;20.47;;;15.13;;
5054;SDS011;13829;48.990;8.346;2024-03-08T06:41:56;23.73;;;16.13;;
5054;SDS011;13829;48.990;8.346;2024-03-08T06:44:23;23.17;;;16.17;;
5054;SDS011;13829;48.990;8.346;2024-03-08T06:46:50;25.13;;;16.33;;
5054;SDS011;13829;48.990;8.346;2024-03-08T06:49:17;22.57;;;16.27;;
5054;SDS011;13829;48.990;8.346;2024-03-08T06:51:44;25.07;;;16.17;;
5054;SDS011;13829;48.990;8.346;2024-03-08T06:54:11;24.47;;;16.17;;
5054;SDS011;13829;48.990;8.346;2024-03-08T06:56:40;24.63;;;16.47;;
5054;SDS011;13829;48.990;8.346;2024-03-08T06:59:07;25.70;;;16.23;;
5054;SDS011;13829;48.990;8.346;2024-03-08T07:01:35;23.53;;;16.33;;
5054;SDS011;13829;48.990;8.346;2024-03-08T07:04:03;23.77;;;16.70;;
5054;SDS011;13829;48.990;8.346;2024-03-08T07:06:31;25.90;;;16.60;;
5054;SDS011;13829;48.990;8.346;2024-03-08T07:08:59;25.33;;;16.60;;
5054;SDS011;13829;48.990;8.346;2024-03-08T07:11:26;22.13;;;15.47;;
5054;SDS011;13829;48.990;8.346;2024-03-08T07:13:55;22.37;;;16.10;;
5054;SDS011;13829;48.990;8.346;2024-03-08T07:16:23;22.80;;;16.10;;
5054;SDS011;13829;48.990;8.346;2024-03-08T07:18:51;20.00;;;14.83;;
5054;SDS011;13829;48.990;8.346;2024-03-08T07:21:18;23.43;;;15.00;;
5054;SDS011;13829;48.990;8.346;2024-03-08T07:23:45;19.97;;;14.43;;
5054;SDS011;13829;48.990;8.346;2024-03-08T07:26:27;22.33;;;15.83;;
5054;SDS011;13829;48.990;8.346;2024-03-08T07:28:56;22.30;;;15.93;;
5054;SDS011;13829;48.990;8.346;2024-03-08T07:31:25;23.17;;;15.53;;
5054;SDS011;13829;48.990;8.346;2024-03-08T07:34:00;20.77;;;15.27;;
5054;SDS011;13829;48.990;8.346;2024-03-08T07:36:28;22.83;;;15.63;;
5054;SDS011;13829;48.990;8.346;2024-03-08T07:38:55;19.43;;;14.67;;
5054;SDS011;13829;48.990;8.346;2024-03-08T07:41:22;19.93;;;14.60;;
5054;SDS011;13829;48.990;8.346;2024-03-08T07:43:49;18.73;;;14.33;;
5054;SDS011;13829;48.990;8.346;2024-03-08T07:46:18;22.67;;;14.60;;
5054;SDS011;13829;48.990;8.346;2024-03-08T07:48:45;19.10;;;14.77;;
5054;SDS011;13829;48.990;8.346;2024-03-08T07:51:15;21.50;;;16.20;;
5054;SDS011;13829;48.990;8.346;2024-03-08T07:53:42;21.50;;;15.00;;
5054;SDS011;13829;48.990;8.346;2024-03-08T07:56:10;20.00;;;15.47;;
5054;SDS011;13829;48.990;8.346;2024-03-08T07:58:38;19.30;;;14.93;;
5054;SDS011;13829;48.990;8.346;2024-03-08T08:01:06;23.37;;;16.17;;
5054;SDS011;13829;48.990;8.346;2024-03-08T08:03:35;21.87;;;15.80;;
5054;SDS011;13829;48.990;8.346;2024-03-08T08:06:03;18.80;;;15.33;;
5054;SDS011;13829;48.990;8.346;2024-03-08T08:08:30;21.10;;;14.77;;
5054;SDS011;13829;48.990;8.346;2024-03-08T08:10:57;19.57;;;14.80;;
5054;SDS011;13829;48.990;8.346;2024-03-08T08:13:26;23.30;;;17.10;;
5054;SDS011;13829;48.990;8.346;2024-03-08T08:15:57;21.00;;;15.10;;
5054;SDS011;13829;48.990;8.346;2024-03-08T08:18:24;22.13;;;15.03;;
5054;SDS011;13829;48.990;8.346;2024-03-08T08:20:52;19.60;;;14.80;;
5054;SDS011;13829;48.990;8.346;2024-03-08T08:23:19;22.47;;;15.67;;
5054;SDS011;13829;48.990;8.346;2024-03-08T08:25:46;21.70;;;16.00;;
5054;SDS011;13829;48.990;8.346;2024-03-08T08:28:15;21.07;;;16.00;;
5054;SDS011;13829;48.990;8.346;2024-03-08T08:30:42;24.17;;;15.90;;
5054;SDS011;13829;48.990;8.346;2024-03-08T08:33:09;21.53;;;15.53;;
5054;SDS011;13829;48.990;8.346;2024-03-08T08:35:37;23.27;;;16.60;;
5054;SDS011;13829;48.990;8.346;2024-03-08T08:38:05;23.07;;;16.10;;
5054;SDS011;13829;48.990;8.346;2024-03-08T08:40:34;21.63;;;15.97;;
5054;SDS011;13829;48.990;8.346;2024-03-08T08:43:01;23.60;;;15.77;;
5054;SDS011;13829;48.990;8.346;2024-03-08T08:45:29;22.57;;;15.87;;
5054;SDS011;13829;48.990;8.346;2024-03-08T08:47:56;21.03;;;15.90;;
5054;SDS011;13829;48.990;8.346;2024-03-08T08:50:24;19.57;;;14.93;;
5054;SDS011;13829;48.990;8.346;2024-03-08T08:52:53;20.40;;;14.33;;
5054;SDS011;13829;48.990;8.346;2024-03-08T08:55:21;23.00;;;16.07;;
5054;SDS011;13829;48.990;8.346;2024-03-08T08:57:50;26.47;;;16.70;;
5054;SDS011;13829;48.990;8.346;2024-03-08T09:00:18;24.53;;;17.27;;
5054;SDS011;13829;48.990;8.346;2024-03-08T09:02:46;21.63;;;15.40;;
5054;SDS011;13829;48.990;8.346;2024-03-08T09:05:14;22.33;;;16.60;;
5054;SDS011;13829;48.990;8.346;2024-03-08T09:07:41;22.73;;;15.80;;
5054;SDS011;13829;48.990;8.346;2024-03-08T09:10:10;20.00;;;14.80;;
5054;SDS011;13829;48.990;8.346;2024-03-08T09:12:40;20.50;;;14.77;;
5054;SDS011;13829;48.990;8.346;2024-03-08T09:15:07;21.93;;;15.40;;
5054;SDS011;13829;48.990;8.346;2024-03-08T09:17:36;22.23;;;15.53;;
5054;SDS011;13829;48.990;8.346;2024-03-08T09:20:05;21.63;;;15.93;;
5054;SDS011;13829;48.990;8.346;2024-03-08T09:22:33;22.23;;;15.80;;
5054;SDS011;13829;48.990;8.346;2024-03-08T09:25:00;20.47;;;14.37;;
5054;SDS011;13829;48.990;8.346;2024-03-08T09:27:30;23.10;;;15.53;;
5054;SDS011;13829;48.990;8.346;2024-03-08T09:29:58;20.03;;;14.63;;
5054;SDS011;13829;48.990;8.346;2024-03-08T09:32:26;22.07;;;14.77;;
5054;SDS011;13829;48.990;8.346;2024-03-08T09:34:53;32.50;;;16.93;;
5054;SDS011;13829;48.990;8.346;2024-03-08T09:37:21;22.03;;;15.93;;
5054;SDS011;13829;48.990;8.346;2024-03-08T09:39:48;22.20;;;14.60;;
5054;SDS011;13829;48.990;8.346;2024-03-08T09:42:15;21.27;;;14.83;;
5054;SDS011;13829;48.990;8.346;2024-03-08T09:44:44;21.60;;;15.00;;
5054;SDS011;13829;48.990;8.346;2024-03-08T09:47:14;19.03;;;14.87;;
5054;SDS011;13829;48.990;8.346;2024-03-08T09:49:41;22.30;;;15.27;;
5054;SDS011;13829;48.990;8.346;2024-03-08T09:52:09;21.07;;;14.97;;
5054;SDS011;13829;48.990;8.346;2024-03-08T09:54:37;21.47;;;15.33;;
5054;SDS011;13829;48.990;8.346;2024-03-08T09:57:09;18.80;;;14.27;;
5054;SDS011;13829;48.990;8.346;2024-03-08T09:59:37;18.33;;;13.90;;
5054;SDS011;13829;48.990;8.346;2024-03-08T10:02:14;22.37;;;14.87;;
5054;SDS011;13829;48.990;8.346;2024-03-08T10:04:42;21.17;;;14.63;;
5054;SDS011;13829;48.990;8.346;2024-03-08T10:07:12;21.30;;;13.70;;
5054;SDS011;13829;48.990;8.346;2024-03-08T10:09:39;19.37;;;14.07;;
5054;SDS011;13829;48.990;8.346;2024-03-08T10:12:07;20.37;;;15.17;;
5054;SDS011;13829;48.990;8.346;2024-03-08T10:14:38;20.53;;;14.63;;
5054;SDS011;13829;48.990;8.346;2024-03-08T10:17:07;20.83;;;14.13;;
5054;SDS011;13829;48.990;8.346;2024-03-08T10:19:35;20.40;;;14.53;;
5054;SDS011;13829;48.990;8.346;2024-03-08T10:22:02;20.47;;;14.47;;
5054;SDS011;13829;48.990;8.346;2024-03-08T10:24:30;19.77;;;14.43;;
5054;SDS011;13829;48.990;8.346;2024-03-08T10:26:58;22.27;;;15.03;;
5054;SDS011;13829;48.990;8.346;2024-03-08T10:29:29;20.63;;;15.30;;
5054;SDS011;13829;48.990;8.346;2024-03-08T10:31:57;20.30;;;14.87;;
5054;SDS011;13829;48.990;8.346;2024-03-08T10:34:24;22.73;;;15.53;;
5054;SDS011;13829;48.990;8.346;2024-03-08T10:36:53;19.40;;;14.10;;
5054;SDS011;13829;48.990;8.346;2024-03-08T10:39:32;20.90;;;14.77;;
5054;SDS011;13829;48.990;8.346;2024-03-08T10:42:02;21.03;;;14.97;;
5054;SDS011;13829;48.990;8.346;2024-03-08T10:44:40;19.70;;;14.43;;
5054;SDS011;13829;48.990;8.346;2024-03-08T10:47:22;23.40;;;15.17;;
5054;SDS011;13829;48.990;8.346;2024-03-08T10:49:55;21.33;;;15.00;;
5054;SDS011;13829;48.990;8.346;2024-03-08T10:52:39;19.90;;;13.47;;
5054;SDS011;13829;48.990;8.346;2024-03-08T10:55:06;19.50;;;13.53;;
5054;SDS011;13829;48.990;8.346;2024-03-08T10:57:37;17.53;;;14.33;;
5054;SDS011;13829;48.990;8.346;2024-03-08T11:00:05;19.03;;;13.03;;
5054;SDS011;13829;48.990;8.346;2024-03-08T11:02:36;21.40;;;13.83;;
5054;SDS011;13829;48.990;8.346;2024-03-08T11:05:04;18.27;;;13.97;;
5054;SDS011;13829;48.990;8.346;2024-03-08T11:07:39;19.87;;;14.53;;
5054;SDS011;13829;48.990;8.346;2024-03-08T11:10:18;18.57;;;13.57;;
5054;SDS011;13829;48.990;8.346;2024-03-08T11:12:46;19.43;;;14.30;;
5054;SDS011;13829;48.990;8.346;2024-03-08T11:15:14;18.93;;;13.70;;
5054;SDS011;13829;48.990;8.346;2024-03-08T11:17:47;18.33;;;13.97;;
5054;SDS011;13829;48.990;8.346;2024-03-08T11:20:15;21.07;;;14.37;;
5054;SDS011;13829;48.990;8.346;2024-03-08T11:22:50;18.17;;;13.03;;
5054;SDS011;13829;48.990;8.346;2024-03-08T11:25:35;19.53;;;14.13;;
5054;SDS011;13829;48.990;8.346;2024-03-08T11:28:07;17.47;;;13.50;;
5054;SDS011;13829;48.990;8.346;2024-03-08T11:30:46;19.20;;;13.93;;
5054;SDS011;13829;48.990;8.346;2024-03-08T11:33:49;17.90;;;13.20;;
5054;SDS011;13829;48.990;8.346;2024-03-08T11:36:20;17.43;;;12.57;;
5054;SDS011;13829;48.990;8.346;2024-03-08T11:38:50;17.77;;;13.17;;
5054;SDS011;13829;48.990;8.346;2024-03-08T11:41:21;17.67;;;12.93;;
5054;SDS011;13829;48.990;8.346;2024-03-08T11:43:49;18.67;;;13.03;;
5054;SDS011;13829;48.990;8.346;2024-03-08T11:46:30;15.20;;;11.77;;
5054;SDS011;13829;48.990;8.346;2024-03-08T11:48:57;18.20;;;13.07;;
5054;SDS011;13829;48.990;8.346;2024-03-08T11:51:25;18.00;;;14.00;;
5054;SDS011;13829;48.990;8.346;2024-03-08T11:53:54;17.17;;;13.07;;
5054;SDS011;13829;48.990;8.346;2024-03-08T11:56:21;18.03;;;13.10;;
5054;SDS011;13829;48.990;8.346;2024-03-08T11:58:52;18.27;;;12.77;;
5054;SDS011;13829;48.990;8.346;2024-03-08T12:01:22;17.63;;;13.00;;
5054;SDS011;13829;48.990;8.346;2024-03-08T12:03:52;15.83;;;12.10;;
5054;SDS011;13829;48.990;8.346;2024-03-08T12:06:19;16.77;;;12.40;;
5054;SDS011;13829;48.990;8.346;2024-03-08T12:08:46;19.10;;;13.87;;
5054;SDS011;13829;48.990;8.346;2024-03-08T12:11:15;20.60;;;13.77;;
5054;SDS011;13829;48.990;8.346;2024-03-08T12:13:47;16.37;;;12.47;;
5054;SDS011;13829;48.990;8.346;2024-03-08T12:16:16;17.07;;;12.67;;
5054;SDS011;13829;48.990;8.346;2024-03-08T12:18:44;17.20;;;12.43;;
5054;SDS011;13829;48.990;8.346;2024-03-08T12:21:12;18.20;;;12.13;;
5054;SDS011;13829;48.990;8.346;2024-03-08T12:23:42;17.47;;;13.43;;
5054;SDS011;13829;48.990;8.346;2024-03-08T12:26:11;18.73;;;13.43;;
5054;SDS011;13829;48.990;8.346;2024-03-08T12:28:40;18.57;;;12.57;;
5054;SDS011;13829;48.990;8.346;2024-03-08T12:31:09;17.43;;;12.70;;
5054;SDS011;13829;48.990;8.346;2024-03-08T12:33:46;17.10;;;12.23;;
5054;SDS011;13829;48.990;8.346;2024-03-08T12:36:15;19.77;;;14.47;;
5054;SDS011;13829;48.990;8.346;2024-03-08T12:38:45;20.03;;;13.13;;
5054;SDS011;13829;48.990;8.346;2024-03-08T12:41:13;17.23;;;12.90;;
5054;SDS011;13829;48.990;8.346;2024-03-08T12:43:41;19.70;;;14.37;;
5054;SDS011;13829;48.990;8.346;2024-03-08T12:46:13;15.57;;;13.03;;
5054;SDS011;13829;48.990;8.346;2024-03-08T12:48:40;20.80;;;13.17;;
5054;SDS011;13829;48.990;8.346;2024-03-08T12:51:11;18.73;;;13.50;;
5054;SDS011;13829;48.990;8.346;2024-03-08T12:53:38;18.67;;;13.60;;
5054;SDS011;13829;48.990;8.346;2024-03-08T12:56:09;18.67;;;13.80;;
5054;SDS011;13829;48.990;8.346;2024-03-08T12:58:36;17.60;;;13.27;;
5054;SDS011;13829;48.990;8.346;2024-03-08T13:01:05;20.03;;;13.07;;
5054;SDS011;13829;48.990;8.346;2024-03-08T13:03:32;19.07;;;13.77;;
5054;SDS011;13829;48.990;8.346;2024-03-08T13:06:00;18.73;;;13.90;;
5054;SDS011;13829;48.990;8.346;2024-03-08T13:08:28;21.37;;;14.60;;
5054;SDS011;13829;48.990;8.346;2024-03-08T13:10:56;18.87;;;14.00;;
5054;SDS011;13829;48.990;8.346;2024-03-08T13:13:24;20.23;;;14.50;;
5054;SDS011;13829;48.990;8.346;2024-03-08T13:15:51;18.30;;;13.93;;
5054;SDS011;13829;48.990;8.346;2024-03-08T13:18:19;19.23;;;13.97;;
5054;SDS011;13829;48.990;8.346;2024-03-08T13:20:46;19.50;;;14.03;;
5054;SDS011;13829;48.990;8.346;2024-03-08T13:23:14;18.33;;;14.27;;
5054;SDS011;13829;48.990;8.346;2024-03-08T13:25:42;19.80;;;13.70;;
5054;SDS011;13829;48.990;8.346;2024-03-08T13:28:10;19.60;;;13.73;;
5054;SDS011;13829;48.990;8.346;2024-03-08T13:30:37;18.67;;;13.97;;
5054;SDS011;13829;48.990;8.346;2024-03-08T13:33:04;20.43;;;13.20;;
5054;SDS011;13829;48.990;8.346;2024-03-08T13:35:33;19.33;;;13.93;;
5054;SDS011;13829;48.990;8.346;2024-03-08T13:38:00;18.50;;;13.77;;
5054;SDS011;13829;48.990;8.346;2024-03-08T13:40:29;18.17;;;13.77;;
5054;SDS011;13829;48.990;8.346;2024-03-08T13:42:56;16.97;;;13.90;;
5054;SDS011;13829;48.990;8.346;2024-03-08T13:45:26;18.10;;;13.93;;
5054;SDS011;13829;48.990;8.346;2024-03-08T13:47:53;19.50;;;14.33;;
5054;SDS011;13829;48.990;8.346;2024-03-08T13:50:20;19.40;;;13.80;;
5054;SDS011;13829;48.990;8.346;2024-03-08T13:52:48;18.77;;;14.13;;
5054;SDS011;13829;48.990;8.346;2024-03-08T13:55:18;18.93;;;13.77;;
5054;SDS011;13829;48.990;8.346;2024-03-08T13:57:47;16.30;;;13.17;;
5054;SDS011;13829;48.990;8.346;2024-03-08T14:00:14;20.47;;;13.93;;
5054;SDS011;13829;48.990;8.346;2024-03-08T14:02:42;19.13;;;13.27;;
5054;SDS011;13829;48.990;8.346;2024-03-08T14:05:09;18.90;;;14.07;;
5054;SDS011;13829;48.990;8.346;2024-03-08T14:07:38;18.13;;;14.17;;
5054;SDS011;13829;48.990;8.346;2024-03-08T14:10:07;17.23;;;13.57;;
5054;SDS011;13829;48.990;8.346;2024-03-08T14:12:35;19.30;;;12.60;;
5054;SDS011;13829;48.990;8.346;2024-03-08T14:15:03;19.90;;;14.70;;
5054;SDS011;13829;48.990;8.346;2024-03-08T14:17:31;17.33;;;12.73;;
5054;SDS011;13829;48.990;8.346;2024-03-08T14:19:58;21.43;;;15.33;;
5054;SDS011;13829;48.990;8.346;2024-03-08T14:22:25;22.67;;;13.77;;
5054;SDS011;13829;48.990;8.346;2024-03-08T14:24:52;19.00;;;13.77;;
5054;SDS011;13829;48.990;8.346;2024-03-08T14:27:22;17.87;;;12.87;;
5054;SDS011;13829;48.990;8.346;2024-03-08T14:29:49;19.50;;;14.37;;
5054;SDS011;13829;48.990;8.346;2024-03-08T14:32:16;22.43;;;16.10;;
5054;SDS011;13829;48.990;8.346;2024-03-08T14:34:44;21.90;;;14.77;;
5054;SDS011;13829;48.990;8.346;2024-03-08T14:37:12;20.27;;;14.30;;
5054;SDS011;13829;48.990;8.346;2024-03-08T14:39:39;18.10;;;13.77;;
5054;SDS011;13829;48.990;8.346;2024-03-08T14:42:06;20.43;;;13.50;;
5054;SDS011;13829;48.990;8.346;2024-03-08T14:44:39;20.13;;;13.60;;